Mobridge, SD

2:22 AM CDT on September 22, 2014 (GMT -0500)
Pierre Regional | Change Station
CLOSE
Current Station
Airport
Location: Pierre,
Elevation: 1742 ft
Nearby Weather Stations

Elev 1742 ft 44.38 °N, 100.29 °W | Updated 29 minutes ago

Clear
Clear
49 °F
Feels Like 49 °F
N
6
Wind Variable Wind from ESE

Today
High -- | Low -- °F
--% Chance of Precip.
Yesterday
High -- | Low -- °F
Precip. -- in
7:28 AM 7:39 PM
Waning Crescent, 4% visible
Pressure 30.21 in
Visibility 10.0 miles
Clouds Clear
Dew Point 41 °F
Humidity 74%
Rainfall 0.00 in
Snow Depth Not available.
UV 0 out of 12
Pollen 5.20 out of 12
Air Quality Not available.
Flu Activity Not available.
METAR KPIR 220653Z AUTO 12005KT 10SM CLR 09/05 A3022 RMK AO2 SLP230 T00940050

More Conditions Fewer Conditions

Pressure 30.21 in
Visibility 10.0 miles
Clouds Clear
Dew Point 41 °F
Humidity 74%
Rainfall 0.00 in
Snow Depth Not available.
UV 0 out of 12
Pollen 5.20 out of 12
Air Quality Not available.
Flu Activity Not available.
METAR KPIR 220653Z AUTO 12005KT 10SM CLR 09/05 A3022 RMK AO2 SLP230 T00940050

More Conditions Fewer Conditions

10-Day Weather Forecast

Almanac

Astronomy

Sep. 22, 2014 Rise Set
Actual Time 7:28 AM CDT 7:39 PM CDT
Civil Twilight 6:59 AM CDT 8:08 PM CDT
Nautical Twilight 6:24 AM CDT 8:43 PM CDT
Astronomical Twilight 5:48 AM CDT 9:18 PM CDT
Moon 5:56 AM CDT 6:49 PM CDT
Length of Visible Light 13h 09m
Length of Day
12h 10m
Tomorrow will be 3m 10s shorter.
Waning Crescent, 4% of the Moon is Illuminated
Today
Waning Crescent
Sep 24
New
Oct 1
First Quarter
Oct 8
Full
Oct 15
Last Quarter

Today's Extremes

State Highs State Lows

Community

WunderPhotos

Upload Photos

1,755,392 photos uploaded!

Nearby

Snow Depth

Station Depth Elevation
Blind Park 0 in 6890 ft

Earthquake Activity

City Distance Mag. Time & Date
No recent earthquake activity has been reported nearby.
Minimum magnitude displayed is 2.5.

Coastal Water Temperatures

Place Temperature
No Stations Reporting

Nearby Weather Stations